createdAt,value
2022-08-22T00:01:55.504Z,14.60
2022-08-22T00:03:15.513Z,14.63
2022-08-22T00:04:36.911Z,14.57
2022-08-22T00:07:30.501Z,14.70
2022-08-22T00:10:25.185Z,14.82
2022-08-22T00:13:12.600Z,14.73
2022-08-22T00:15:52.612Z,14.77
2022-08-22T00:18:31.802Z,14.75
2022-08-22T00:21:24.938Z,14.73
2022-08-22T00:24:32.176Z,14.74
2022-08-22T00:27:02.102Z,14.74
2022-08-22T00:29:44.335Z,14.75
2022-08-22T00:32:33.677Z,14.62
2022-08-22T00:35:13.108Z,14.51
2022-08-22T00:38:05.722Z,14.48
2022-08-22T00:41:01.623Z,14.31
2022-08-22T00:43:35.300Z,14.11
2022-08-22T00:46:46.752Z,13.98
2022-08-22T00:49:44.748Z,13.84
2022-08-22T00:52:26.184Z,13.79
2022-08-22T00:55:02.494Z,13.87
2022-08-22T00:57:48.740Z,13.97
2022-08-22T01:00:29.314Z,13.78
2022-08-22T01:03:13.716Z,13.69
2022-08-22T01:06:03.466Z,13.59
2022-08-22T01:08:45.988Z,13.66
2022-08-22T01:11:51.983Z,13.78
2022-08-22T01:14:48.783Z,13.78
2022-08-22T01:17:59.753Z,13.67
2022-08-22T01:20:59.445Z,13.64
2022-08-22T01:23:59.404Z,13.69
2022-08-22T01:26:59.311Z,13.59
2022-08-22T01:29:57.667Z,13.64
2022-08-22T01:32:31.192Z,13.62
2022-08-22T01:35:15.313Z,13.76
2022-08-22T01:38:06.785Z,13.62
2022-08-22T01:40:53.860Z,13.57
2022-08-22T01:43:58.945Z,13.53
2022-08-22T01:46:32.516Z,13.50
2022-08-22T01:49:05.397Z,13.50
2022-08-22T01:51:50.832Z,13.46
2022-08-22T01:54:33.929Z,13.64
2022-08-22T01:57:08.431Z,13.64
2022-08-22T01:59:42.260Z,13.69
2022-08-22T02:02:31.443Z,13.91
2022-08-22T02:05:40.027Z,13.91
2022-08-22T02:08:37.509Z,13.79
2022-08-22T02:11:06.499Z,13.81
2022-08-22T02:13:42.857Z,13.75
2022-08-22T02:16:22.976Z,13.70
2022-08-22T02:19:05.197Z,13.67
2022-08-22T02:21:41.336Z,13.77
2022-08-22T02:24:23.433Z,13.67
2022-08-22T02:27:05.865Z,13.80
2022-08-22T02:29:43.863Z,13.61
2022-08-22T02:32:11.027Z,13.56
2022-08-22T02:35:03.594Z,13.45
2022-08-22T02:38:20.948Z,13.42
2022-08-22T02:41:09.477Z,13.45
2022-08-22T02:43:54.163Z,13.33
2022-08-22T02:46:50.446Z,13.29
2022-08-22T02:49:43.785Z,13.26
2022-08-22T02:52:25.248Z,13.19
2022-08-22T02:55:00.816Z,13.18
2022-08-22T02:57:44.694Z,13.28
2022-08-22T03:00:31.062Z,13.22
2022-08-22T03:02:59.374Z,13.22
2022-08-22T03:05:38.562Z,13.13
2022-08-22T03:08:18.716Z,13.23
2022-08-22T03:11:01.243Z,13.15
2022-08-22T03:14:05.848Z,13.09
2022-08-22T03:16:54.362Z,13.10
2022-08-22T03:19:44.034Z,13.10
2022-08-22T03:22:35.859Z,13.14
2022-08-22T03:25:09.002Z,13.13
2022-08-22T03:27:39.748Z,13.11
2022-08-22T03:30:10.827Z,13.13
2022-08-22T03:32:55.001Z,13.17
2022-08-22T03:35:27.077Z,13.15
2022-08-22T03:38:09.451Z,13.15
2022-08-22T03:41:00.893Z,13.13
2022-08-22T03:43:53.817Z,13.14
2022-08-22T03:46:58.614Z,13.09
2022-08-22T03:50:04.419Z,13.00
2022-08-22T03:53:15.362Z,12.95
2022-08-22T03:56:11.366Z,12.98
2022-08-22T03:59:11.636Z,12.98
2022-08-22T04:01:48.032Z,13.01
2022-08-22T04:04:48.318Z,13.07
2022-08-22T04:07:31.638Z,13.10
2022-08-22T04:10:08.347Z,13.11
2022-08-22T04:13:05.955Z,13.11
2022-08-22T04:16:19.503Z,13.17
2022-08-22T04:19:23.961Z,13.27
2022-08-22T04:22:26.797Z,13.29
2022-08-22T04:25:08.208Z,13.31
2022-08-22T04:28:03.170Z,13.33
2022-08-22T04:30:53.280Z,13.34
2022-08-22T04:33:35.280Z,13.46
2022-08-22T04:36:16.243Z,13.54
2022-08-22T04:39:00.089Z,13.68
2022-08-22T04:42:11.154Z,13.69
2022-08-22T04:44:49.956Z,13.56
2022-08-22T04:47:40.389Z,13.59
2022-08-22T04:50:25.775Z,13.63
2022-08-22T04:53:14.619Z,13.63
2022-08-22T04:56:11.888Z,13.69
2022-08-22T04:58:46.766Z,13.73
2022-08-22T05:01:14.898Z,13.74
2022-08-22T05:03:55.689Z,13.78
2022-08-22T05:06:28.704Z,13.90
2022-08-22T05:09:00.878Z,13.93
2022-08-22T05:11:30.622Z,13.94
2022-08-22T05:14:02.581Z,13.92
2022-08-22T05:16:37.138Z,13.90
2022-08-22T05:19:16.918Z,13.88
2022-08-22T05:21:48.180Z,13.84
2022-08-22T05:24:28.874Z,13.96
2022-08-22T05:27:01.589Z,13.97
2022-08-22T05:29:31.785Z,13.98
2022-08-22T05:32:07.024Z,14.12
2022-08-22T05:34:39.943Z,14.04
2022-08-22T05:37:22.981Z,14.08
2022-08-22T05:39:57.519Z,14.11
2022-08-22T05:42:37.586Z,14.16
2022-08-22T05:45:12.062Z,14.18
2022-08-22T05:47:43.464Z,14.33
2022-08-22T05:50:35.633Z,14.36
2022-08-22T05:53:06.418Z,14.42
2022-08-22T05:55:59.993Z,14.34
2022-08-22T05:58:41.779Z,14.25
2022-08-22T06:01:34.816Z,14.28
2022-08-22T06:04:14.149Z,14.31
2022-08-22T06:06:57.255Z,14.31
2022-08-22T06:09:48.687Z,14.42
2022-08-22T06:12:39.281Z,14.49
2022-08-22T06:15:26.575Z,14.55
2022-08-22T06:18:01.605Z,14.62
2022-08-22T06:20:39.952Z,14.70
2022-08-22T06:23:10.784Z,14.80
2022-08-22T06:25:40.487Z,14.84
2022-08-22T06:28:11.501Z,14.93
2022-08-22T06:30:39.993Z,14.98
2022-08-22T06:33:12.847Z,15.00
2022-08-22T06:36:22.211Z,14.96
2022-08-22T06:39:01.792Z,15.04
2022-08-22T06:41:33.349Z,15.04
2022-08-22T06:44:03.966Z,14.99
2022-08-22T06:46:36.542Z,15.09
2022-08-22T06:49:07.932Z,15.15
2022-08-22T06:51:39.860Z,15.18
2022-08-22T06:54:14.680Z,15.27
2022-08-22T06:56:46.340Z,15.34
2022-08-22T06:59:24.259Z,15.38
2022-08-22T07:02:08.401Z,15.49
2022-08-22T07:04:36.925Z,15.57
2022-08-22T07:07:05.590Z,15.75
2022-08-22T07:09:36.135Z,15.82
2022-08-22T07:12:14.042Z,15.94
2022-08-22T07:14:44.304Z,15.94
2022-08-22T07:17:46.694Z,16.04
2022-08-22T07:20:38.663Z,16.22
2022-08-22T07:23:10.710Z,16.19
2022-08-22T07:26:05.133Z,16.22
2022-08-22T07:28:59.169Z,16.25
2022-08-22T07:32:01.442Z,16.41
2022-08-22T07:35:07.095Z,16.54
2022-08-22T07:37:45.123Z,16.70
2022-08-22T07:40:31.984Z,16.65
2022-08-22T07:43:22.243Z,16.66
2022-08-22T07:46:06.557Z,16.92
2022-08-22T07:49:05.900Z,16.95
2022-08-22T07:51:41.717Z,16.99
2022-08-22T07:54:17.051Z,17.16
2022-08-22T07:57:03.375Z,17.41
2022-08-22T07:59:33.321Z,17.52
2022-08-22T08:02:04.945Z,17.62
2022-08-22T08:04:40.045Z,17.73
2022-08-22T08:07:10.674Z,17.75
2022-08-22T08:09:46.346Z,17.85
2022-08-22T08:12:15.960Z,18.08
2022-08-22T08:14:45.949Z,18.16
2022-08-22T08:17:26.955Z,18.23
2022-08-22T08:19:59.764Z,18.39
2022-08-22T08:22:27.830Z,18.37
2022-08-22T08:24:58.460Z,18.44
2022-08-22T08:27:50.508Z,18.50
2022-08-22T08:30:21.686Z,18.70
2022-08-22T08:32:59.535Z,18.99
2022-08-22T08:36:02.599Z,19.18
2022-08-22T08:38:59.887Z,19.38
2022-08-22T08:41:49.952Z,19.60
2022-08-22T08:44:38.570Z,19.61
2022-08-22T08:47:40.240Z,19.74
2022-08-22T08:50:21.196Z,19.77
2022-08-22T08:52:58.552Z,19.81
2022-08-22T08:55:25.940Z,19.90
2022-08-22T08:58:31.986Z,20.05
2022-08-22T09:01:11.619Z,20.16
2022-08-22T09:04:05.053Z,20.02
2022-08-22T09:07:01.052Z,20.14
2022-08-22T09:09:40.976Z,19.99
2022-08-22T09:12:36.501Z,19.93
2022-08-22T09:15:54.930Z,19.73
2022-08-22T09:18:57.133Z,19.57
2022-08-22T09:21:55.624Z,19.58
2022-08-22T09:24:41.306Z,19.67
2022-08-22T09:27:18.488Z,19.71
2022-08-22T09:29:57.247Z,19.82
2022-08-22T09:32:39.787Z,19.93
2022-08-22T09:35:26.547Z,19.97
2022-08-22T09:37:53.829Z,19.89
2022-08-22T09:40:42.662Z,19.86
2022-08-22T09:43:21.192Z,19.80
2022-08-22T09:46:17.176Z,19.79
2022-08-22T09:49:00.661Z,19.82
2022-08-22T09:51:39.698Z,19.76
2022-08-22T09:54:24.871Z,19.79
2022-08-22T09:57:23.732Z,19.86
2022-08-22T10:00:16.184Z,19.87
2022-08-22T10:03:03.710Z,19.87
2022-08-22T10:05:44.303Z,19.91
2022-08-22T10:08:19.970Z,20.06
2022-08-22T10:11:19.514Z,20.14
2022-08-22T10:14:01.585Z,20.07
2022-08-22T10:16:54.335Z,20.13
2022-08-22T10:19:36.350Z,20.18
2022-08-22T10:22:34.935Z,20.16
2022-08-22T10:25:20.721Z,20.22
2022-08-22T10:27:50.887Z,20.32
2022-08-22T10:30:59.242Z,20.39
2022-08-22T10:33:46.106Z,20.51
2022-08-22T10:36:36.798Z,20.55
2022-08-22T10:39:11.621Z,20.71
2022-08-22T10:42:08.125Z,20.81
2022-08-22T10:44:48.822Z,20.91
2022-08-22T10:47:22.358Z,20.90
2022-08-22T10:50:02.462Z,20.86
2022-08-22T10:52:46.439Z,20.93
2022-08-22T10:55:27.215Z,21.03
2022-08-22T10:58:09.670Z,20.99
2022-08-22T11:01:37.845Z,21.24
2022-08-22T11:04:09.731Z,21.59
2022-08-22T11:06:51.559Z,21.68
2022-08-22T11:09:21.653Z,21.57
2022-08-22T11:12:20.258Z,21.34
2022-08-22T11:15:07.418Z,21.11
2022-08-22T11:18:14.378Z,21.00
2022-08-22T11:21:03.687Z,21.06
2022-08-22T11:23:52.910Z,21.03
2022-08-22T11:26:47.470Z,20.96
2022-08-22T11:29:33.731Z,20.81
2022-08-22T11:32:26.743Z,20.64
2022-08-22T11:34:54.087Z,20.58
2022-08-22T11:37:59.761Z,20.61
2022-08-22T11:40:41.504Z,20.57
2022-08-22T11:43:27.706Z,20.61
2022-08-22T11:46:19.859Z,20.64
2022-08-22T11:49:33.636Z,20.58
2022-08-22T11:52:06.518Z,20.56
2022-08-22T11:55:16.967Z,20.69
2022-08-22T11:57:49.297Z,20.73
2022-08-22T12:00:33.166Z,20.75
2022-08-22T12:03:17.751Z,20.74
2022-08-22T12:06:01.826Z,20.68
2022-08-22T12:08:28.978Z,20.67
2022-08-22T12:11:03.471Z,20.72
2022-08-22T12:14:03.951Z,20.62
2022-08-22T12:16:57.483Z,20.63
2022-08-22T12:19:33.465Z,20.72
2022-08-22T12:22:28.859Z,20.72
2022-08-22T12:25:12.232Z,20.89
2022-08-22T12:27:55.099Z,20.89
2022-08-22T12:30:25.317Z,20.80
2022-08-22T12:33:06.471Z,20.65
2022-08-22T12:35:58.397Z,20.67
2022-08-22T12:38:35.966Z,20.78
2022-08-22T12:41:27.839Z,20.94
2022-08-22T12:44:16.412Z,21.06
2022-08-22T12:47:07.163Z,20.99
2022-08-22T12:50:07.489Z,21.08
2022-08-22T12:53:07.727Z,20.84
2022-08-22T12:56:10.159Z,20.91
2022-08-22T12:58:56.069Z,20.89
2022-08-22T13:01:34.045Z,20.81
2022-08-22T13:04:05.672Z,20.80
2022-08-22T13:06:36.039Z,20.80
2022-08-22T13:09:16.954Z,20.90
2022-08-22T13:11:49.746Z,20.68
2022-08-22T13:14:25.636Z,20.68
2022-08-22T13:17:01.027Z,20.65
2022-08-22T13:19:57.396Z,20.53
2022-08-22T13:22:29.113Z,20.39
2022-08-22T13:25:25.572Z,20.26
2022-08-22T13:28:04.296Z,20.17
2022-08-22T13:30:34.817Z,20.17
2022-08-22T13:33:14.310Z,20.11
2022-08-22T13:35:51.686Z,19.88
2022-08-22T13:38:46.340Z,19.86
2022-08-22T13:41:23.769Z,19.70
2022-08-22T13:44:07.034Z,19.69
2022-08-22T13:46:48.194Z,19.76
2022-08-22T13:49:42.273Z,19.74
2022-08-22T13:52:28.817Z,19.77
2022-08-22T13:55:22.775Z,19.88
2022-08-22T13:58:00.423Z,19.76
2022-08-22T14:00:57.426Z,19.81
2022-08-22T14:03:54.065Z,19.71
2022-08-22T14:06:46.552Z,19.70
2022-08-22T14:09:31.218Z,19.79
2022-08-22T14:12:12.109Z,19.71
2022-08-22T14:14:43.418Z,19.75
2022-08-22T14:17:18.359Z,19.71
2022-08-22T14:19:59.479Z,19.75
2022-08-22T14:22:35.586Z,19.87
2022-08-22T14:25:17.735Z,19.82
2022-08-22T14:27:52.523Z,19.89
2022-08-22T14:30:26.374Z,19.79
2022-08-22T14:32:58.979Z,19.81
2022-08-22T14:35:38.037Z,19.85
2022-08-22T14:38:30.152Z,19.82
2022-08-22T14:41:05.432Z,19.76
2022-08-22T14:43:32.606Z,19.71
2022-08-22T14:46:06.315Z,19.64
2022-08-22T14:48:46.213Z,19.76
2022-08-22T14:51:25.113Z,19.71
2022-08-22T14:53:52.983Z,19.62
2022-08-22T14:56:21.735Z,19.60
2022-08-22T14:58:54.984Z,19.57
2022-08-22T15:01:25.215Z,19.63
2022-08-22T15:04:04.494Z,19.63
2022-08-22T15:06:35.986Z,19.52
2022-08-22T15:09:11.482Z,19.57
2022-08-22T15:11:42.405Z,19.53
2022-08-22T15:14:42.766Z,19.40
2022-08-22T15:17:11.602Z,19.46
2022-08-22T15:19:46.368Z,19.36
2022-08-22T15:22:27.998Z,19.41
2022-08-22T15:25:14.315Z,19.32
2022-08-22T15:27:47.535Z,19.26
2022-08-22T15:30:20.978Z,19.22
2022-08-22T15:32:49.242Z,19.23
2022-08-22T15:35:30.099Z,19.23
2022-08-22T15:37:58.943Z,19.35
2022-08-22T15:40:40.505Z,19.19
2022-08-22T15:43:19.951Z,19.14
2022-08-22T15:45:49.061Z,19.22
2022-08-22T15:48:36.642Z,19.23
2022-08-22T15:51:09.170Z,19.20
2022-08-22T15:54:01.059Z,19.06
2022-08-22T15:56:33.050Z,18.97
2022-08-22T15:59:53.530Z,18.92
2022-08-22T16:02:35.864Z,18.88
2022-08-22T16:05:05.916Z,18.79
2022-08-22T16:07:34.241Z,18.75
2022-08-22T16:10:11.555Z,18.72
2022-08-22T16:12:45.917Z,18.63
2022-08-22T16:15:51.294Z,18.57
2022-08-22T16:18:33.725Z,18.58
2022-08-22T16:21:02.438Z,18.41
2022-08-22T16:23:49.896Z,18.41
2022-08-22T16:26:23.269Z,18.39
2022-08-22T16:28:59.628Z,18.33
2022-08-22T16:31:35.778Z,18.34
2022-08-22T16:34:18.594Z,18.38
2022-08-22T16:36:50.786Z,18.42
2022-08-22T16:39:23.907Z,18.34
2022-08-22T16:42:13.041Z,18.41
2022-08-22T16:44:56.198Z,18.40
2022-08-22T16:47:41.837Z,18.42
2022-08-22T16:50:24.133Z,18.34
2022-08-22T16:52:53.746Z,18.30
2022-08-22T16:55:30.240Z,18.24
2022-08-22T16:58:07.220Z,18.20
2022-08-22T17:00:59.014Z,18.30
2022-08-22T17:03:29.184Z,18.30
2022-08-22T17:06:17.593Z,18.30
2022-08-22T17:09:23.696Z,18.30
2022-08-22T17:12:24.599Z,18.28
2022-08-22T17:15:25.534Z,18.26
2022-08-22T17:18:15.080Z,18.26
2022-08-22T17:20:54.836Z,18.22
2022-08-22T17:23:37.560Z,18.19
2022-08-22T17:26:18.087Z,18.18
2022-08-22T17:29:23.941Z,18.23
2022-08-22T17:32:11.917Z,18.17
2022-08-22T17:35:07.144Z,18.08
2022-08-22T17:37:51.082Z,18.02
2022-08-22T17:40:24.433Z,18.00
2022-08-22T17:43:01.202Z,18.08
2022-08-22T17:45:37.443Z,17.99
2022-08-22T17:48:28.716Z,17.90
2022-08-22T17:51:03.014Z,17.92
2022-08-22T17:53:44.846Z,17.83
2022-08-22T17:56:38.785Z,17.79
2022-08-22T17:59:20.669Z,17.78
2022-08-22T18:02:16.592Z,17.71
2022-08-22T18:04:52.502Z,17.61
2022-08-22T18:07:39.277Z,17.62
2022-08-22T18:10:16.295Z,17.55
2022-08-22T18:12:56.903Z,17.55
2022-08-22T18:15:47.203Z,17.54
2022-08-22T18:18:31.199Z,17.47
2022-08-22T18:21:21.602Z,17.51
2022-08-22T18:23:54.177Z,17.45
2022-08-22T18:26:31.207Z,17.49
2022-08-22T18:29:16.010Z,17.44
2022-08-22T18:31:49.151Z,17.45
2022-08-22T18:34:22.462Z,17.51
2022-08-22T18:36:57.365Z,17.45
2022-08-22T18:39:42.635Z,17.28
2022-08-22T18:42:24.610Z,17.20
2022-08-22T18:44:51.978Z,17.09
2022-08-22T18:47:24.758Z,17.09
2022-08-22T18:49:55.020Z,17.01
2022-08-22T18:52:25.294Z,17.07
2022-08-22T18:55:15.045Z,17.06
2022-08-22T18:57:57.825Z,17.02
2022-08-22T19:00:51.716Z,16.96
2022-08-22T19:03:56.006Z,16.92
2022-08-22T19:06:41.873Z,16.90
2022-08-22T19:09:21.433Z,16.90
2022-08-22T19:12:21.856Z,16.90
2022-08-22T19:15:14.805Z,16.87
2022-08-22T19:18:04.604Z,16.91
2022-08-22T19:20:53.718Z,16.90
2022-08-22T19:23:37.156Z,16.87
2022-08-22T19:26:26.202Z,16.89
2022-08-22T19:28:58.367Z,16.82
2022-08-22T19:31:44.469Z,16.82
2022-08-22T19:34:28.701Z,16.79
2022-08-22T19:37:30.729Z,16.76
2022-08-22T19:40:08.331Z,16.74
2022-08-22T19:42:38.277Z,16.73
2022-08-22T19:45:29.476Z,16.71
2022-08-22T19:48:13.247Z,16.75
2022-08-22T19:50:42.737Z,16.71
2022-08-22T19:53:42.415Z,16.80
2022-08-22T19:56:39.633Z,16.76
2022-08-22T19:59:30.179Z,16.72
2022-08-22T20:02:23.939Z,16.66
2022-08-22T20:05:21.387Z,16.64
2022-08-22T20:08:07.320Z,16.63
2022-08-22T20:11:17.395Z,16.65
2022-08-22T20:13:45.560Z,16.62
2022-08-22T20:16:18.413Z,16.62
2022-08-22T20:19:01.910Z,16.66
2022-08-22T20:22:01.262Z,16.58
2022-08-22T20:24:46.720Z,16.51
2022-08-22T20:27:20.078Z,16.55
2022-08-22T20:30:13.135Z,16.53
2022-08-22T20:32:50.923Z,16.40
2022-08-22T20:35:23.052Z,16.49
2022-08-22T20:38:06.599Z,16.59
2022-08-22T20:40:59.571Z,16.62
2022-08-22T20:43:55.534Z,16.51
2022-08-22T20:46:26.643Z,16.56
2022-08-22T20:48:56.540Z,16.40
2022-08-22T20:51:26.573Z,16.38
2022-08-22T20:53:56.301Z,16.33
2022-08-22T20:56:51.640Z,16.21
2022-08-22T20:59:23.070Z,16.21
2022-08-22T21:02:04.264Z,16.21
2022-08-22T21:04:42.707Z,16.09
2022-08-22T21:07:10.781Z,16.04
2022-08-22T21:09:56.594Z,16.01
2022-08-22T21:12:24.913Z,15.97
2022-08-22T21:14:52.326Z,16.00
2022-08-22T21:17:29.162Z,15.90
2022-08-22T21:20:21.410Z,15.80
2022-08-22T21:22:49.259Z,15.75
2022-08-22T21:25:16.395Z,15.70
2022-08-22T21:27:48.128Z,15.75
2022-08-22T21:30:23.766Z,15.78
2022-08-22T21:32:55.651Z,15.67
2022-08-22T21:35:32.663Z,15.70
2022-08-22T21:38:01.278Z,15.67
2022-08-22T21:40:35.926Z,15.56
2022-08-22T21:43:12.183Z,15.40
2022-08-22T21:45:39.358Z,15.40
2022-08-22T21:48:45.210Z,15.32
2022-08-22T21:51:36.594Z,15.25
2022-08-22T21:54:25.778Z,15.24
2022-08-22T21:57:09.311Z,15.19
2022-08-22T21:59:50.897Z,15.24
2022-08-22T22:02:37.157Z,15.15
2022-08-22T22:05:14.423Z,15.17
2022-08-22T22:07:44.444Z,15.12
2022-08-22T22:10:15.978Z,15.11
2022-08-22T22:12:45.373Z,15.21
2022-08-22T22:15:17.443Z,15.19
2022-08-22T22:17:44.718Z,15.19
2022-08-22T22:20:14.009Z,15.25
2022-08-22T22:22:46.078Z,15.25
2022-08-22T22:25:40.825Z,15.21
2022-08-22T22:28:13.533Z,15.21
2022-08-22T22:30:42.197Z,15.15
2022-08-22T22:33:10.187Z,15.03
2022-08-22T22:35:39.146Z,14.90
2022-08-22T22:38:07.744Z,14.86
2022-08-22T22:40:35.772Z,14.83
2022-08-22T22:43:03.475Z,14.81
2022-08-22T22:45:30.878Z,14.80
2022-08-22T22:47:58.217Z,14.78
2022-08-22T22:50:26.058Z,14.79
2022-08-22T22:52:54.115Z,14.80
2022-08-22T22:55:25.139Z,14.78
2022-08-22T22:57:59.113Z,14.87
2022-08-22T23:00:33.283Z,14.84
2022-08-22T23:03:03.609Z,14.81
2022-08-22T23:05:31.477Z,14.80
2022-08-22T23:07:59.581Z,14.84
2022-08-22T23:10:29.007Z,14.77
2022-08-22T23:12:57.290Z,14.69
2022-08-22T23:15:25.039Z,14.72
2022-08-22T23:17:52.286Z,14.70
2022-08-22T23:20:19.809Z,14.67
2022-08-22T23:22:47.807Z,14.64
2022-08-22T23:25:15.187Z,14.63
2022-08-22T23:27:42.835Z,14.71
2022-08-22T23:30:11.217Z,14.73
2022-08-22T23:32:39.337Z,14.68
2022-08-22T23:35:07.203Z,14.70
2022-08-22T23:37:34.898Z,14.64
2022-08-22T23:40:02.754Z,14.61
2022-08-22T23:42:29.901Z,14.63
2022-08-22T23:44:57.063Z,14.72
2022-08-22T23:47:24.390Z,14.69
2022-08-22T23:49:51.672Z,14.65
2022-08-22T23:52:18.956Z,14.69
2022-08-22T23:54:46.559Z,14.68
2022-08-22T23:57:14.247Z,14.69
2022-08-22T23:59:48.059Z,14.68
